^^
Station Historical Data
Daily Summary for February 15, 2018 Units:  Both    English   Metric
« Previous Day
Next Day »
Daily Weekly Monthly Yearly Custom
  High: Low: Average:
Temperature: TemperatureF °F /  -17.8 °C 61.0 °F /  16.1 °C 75.9 °F /  24.4 °C
Dew Point: DewpointF °F /  -17.8 °C 38.3 °F /  3.5 °C 44.8 °F /  7.1 °C
Humidity: Humidity% 18% 36%
Wind Speed: WindSpeedMPHmph /  0km/h - 1.9mph /  3.1km/h
Wind Gust: WindSpeedGustMPHmph /  0km/h - -
Wind- - WSW
Pressure: PressureIn in /  0 hPa 29.59 in /  1001.9 hPa -
Precipitation: 0.00 in /  0 mm    
Historical Graphs
 
 
Tabular Data for February 15, 2018
Time Temperature Dew Point Pressure Wind Wind Speed Wind Gust Humidity Rainfall Rate (Hourly) solar Conditions
TemperatureF °F /  -17.8 °C DewpointF °F /  -17.8 °C PressureInin /  0hPa Calm     Humidity% HourlyPrecipInin /  0mm SolarRadiationWatts/m^2 W/m2 Conditions
00:00 69.6 °F /  20.9 °C 57.7 °F /  14.3 °C 29.77in /  1008hPa Calm     66% 0.00in /  0mm 0.0 W/m2
00:05 69.6 °F /  20.9 °C 57.4 °F /  14.1 °C 29.77in /  1008hPa Calm     65% 0.00in /  0mm 0.0 W/m2
00:10 69.6 °F /  20.9 °C 57.7 °F /  14.3 °C 29.77in /  1008hPa Calm     66% 0.00in /  0mm 0.0 W/m2
00:15 69.6 °F /  20.9 °C 57.7 °F /  14.3 °C 29.77in /  1008hPa Calm     66% 0.00in /  0mm 0.0 W/m2
00:20 69.6 °F /  20.9 °C 57.7 °F /  14.3 °C 29.77in /  1008hPa Calm     66% 0.00in /  0mm 0.0 W/m2
00:25 69.6 °F /  20.9 °C 57.7 °F /  14.3 °C 29.77in /  1008hPa Calm     66% 0.00in /  0mm 0.0 W/m2
00:30 69.6 °F /  20.9 °C 58.6 °F /  14.8 °C 29.76in /  1007.7hPa Calm     68% 0.00in /  0mm 0.0 W/m2
00:35 69.6 °F /  20.9 °C 59.0 °F /  15 °C 29.76in /  1007.7hPa Calm     69% 0.00in /  0mm 0.0 W/m2
00:41 69.4 °F /  20.8 °C 58.8 °F /  14.9 °C 29.76in /  1007.7hPa Calm     69% 0.00in /  0mm 0.0 W/m2
00:46 69.4 °F /  20.8 °C 58.8 °F /  14.9 °C 29.75in /  1007.3hPa Calm     69% 0.00in /  0mm 0.0 W/m2
00:51 69.4 °F /  20.8 °C 58.8 °F /  14.9 °C 29.75in /  1007.3hPa Calm     69% 0.00in /  0mm 0.0 W/m2
00:56 69.3 °F /  20.7 °C 59.0 °F /  15 °C 29.75in /  1007.3hPa Calm   1.0mph /  1.6km/h 70% 0.00in /  0mm 0.0 W/m2
01:02 69.3 °F /  20.7 °C 59.5 °F /  15.3 °C 29.75in /  1007.3hPa Calm     71% 0.00in /  0mm 0.0 W/m2
01:07 69.1 °F /  20.6 °C 59.4 °F /  15.2 °C 29.75in /  1007.3hPa Calm     71% 0.00in /  0mm 0.0 W/m2
01:12 69.1 °F /  20.6 °C 58.8 °F /  14.9 °C 29.75in /  1007.3hPa Calm     70% 0.00in /  0mm 0.0 W/m2
01:17 68.9 °F /  20.5 °C 58.6 °F /  14.8 °C 29.74in /  1007hPa Calm     70% 0.00in /  0mm 0.0 W/m2
01:22 68.7 °F /  20.4 °C 59.0 °F /  15 °C 29.74in /  1007hPa Calm     71% 0.00in /  0mm 0.0 W/m2
01:28 68.5 °F /  20.3 °C 58.8 °F /  14.9 °C 29.74in /  1007hPa Calm     71% 0.00in /  0mm 0.0 W/m2
01:33 68.5 °F /  20.3 °C 58.8 °F /  14.9 °C 29.73in /  1006.7hPa Calm     71% 0.00in /  0mm 0.0 W/m2
01:38 68.4 °F /  20.2 °C 58.6 °F /  14.8 °C 29.73in /  1006.7hPa Calm     71% 0.00in /  0mm 0.0 W/m2
01:43 68.4 °F /  20.2 °C 58.3 °F /  14.6 °C 29.73in /  1006.7hPa Calm   1.0mph /  1.6km/h 70% 0.00in /  0mm 0.0 W/m2
01:48 68.2 °F /  20.1 °C 55.9 °F /  13.3 °C 29.73in /  1006.7hPa Calm     65% 0.00in /  0mm 0.0 W/m2
01:53 68.2 °F /  20.1 °C 53.2 °F /  11.8 °C 29.73in /  1006.7hPa Calm   2.0mph /  3.2km/h 59% 0.00in /  0mm 0.0 W/m2
01:58 68.2 °F /  20.1 °C 51.4 °F /  10.8 °C 29.73in /  1006.7hPa SE 2.0mph /  3.2km/h 2.0mph /  3.2km/h 55% 0.00in /  0mm 0.0 W/m2
02:03 68.4 °F /  20.2 °C 49.5 °F /  9.7 °C 29.73in /  1006.7hPa Calm   2.0mph /  3.2km/h 51% 0.00in /  0mm 0.0 W/m2
02:09 68.5 °F /  20.3 °C 49.1 °F /  9.5 °C 29.73in /  1006.7hPa Calm   1.0mph /  1.6km/h 50% 0.00in /  0mm 0.0 W/m2
02:14 68.7 °F /  20.4 °C 47.7 °F /  8.7 °C 29.73in /  1006.7hPa SSE 2.0mph /  3.2km/h 5.0mph /  8km/h 47% 0.00in /  0mm 0.0 W/m2
02:19 68.9 °F /  20.5 °C 46.0 °F /  7.8 °C 29.73in /  1006.7hPa SE 0.9mph /  1.4km/h 4.0mph /  6.4km/h 44% 0.00in /  0mm 0.0 W/m2
02:24 69.3 °F /  20.7 °C 46.4 °F /  8 °C 29.72in /  1006.3hPa Calm   2.0mph /  3.2km/h 44% 0.00in /  0mm 0.0 W/m2
02:29 69.4 °F /  20.8 °C 44.8 °F /  7.1 °C 29.72in /  1006.3hPa SSE 0.9mph /  1.4km/h 2.0mph /  3.2km/h 41% 0.00in /  0mm 0.0 W/m2
02:34 69.6 °F /  20.9 °C 45.0 °F /  7.2 °C 29.72in /  1006.3hPa Calm   2.0mph /  3.2km/h 41% 0.00in /  0mm 0.0 W/m2
02:39 69.8 °F /  21 °C 45.0 °F /  7.2 °C 29.72in /  1006.3hPa SSW 2.0mph /  3.2km/h 5.0mph /  8km/h 41% 0.00in /  0mm 0.0 W/m2
02:44 70.0 °F /  21.1 °C 44.6 °F /  7 °C 29.72in /  1006.3hPa SSW 4.0mph /  6.4km/h 4.0mph /  6.4km/h 40% 0.00in /  0mm 0.0 W/m2
02:49 70.0 °F /  21.1 °C 43.9 °F /  6.6 °C 29.72in /  1006.3hPa Calm   4.0mph /  6.4km/h 39% 0.00in /  0mm 0.0 W/m2
02:54 70.0 °F /  21.1 °C 43.9 °F /  6.6 °C 29.72in /  1006.3hPa South 0.9mph /  1.4km/h 4.0mph /  6.4km/h 39% 0.00in /  0mm 0.0 W/m2
02:59 70.2 °F /  21.2 °C 42.6 °F /  5.9 °C 29.72in /  1006.3hPa Calm   2.0mph /  3.2km/h 37% 0.00in /  0mm 0.0 W/m2
03:05 70.2 °F /  21.2 °C 41.9 °F /  5.5 °C 29.72in /  1006.3hPa SSW 2.0mph /  3.2km/h 3.0mph /  4.8km/h 36% 0.00in /  0mm 0.0 W/m2
03:10 70.3 °F /  21.3 °C 42.1 °F /  5.6 °C 29.72in /  1006.3hPa Calm   2.0mph /  3.2km/h 36% 0.00in /  0mm 0.0 W/m2
03:15 70.3 °F /  21.3 °C 42.1 °F /  5.6 °C 29.72in /  1006.3hPa SE 0.9mph /  1.4km/h 1.0mph /  1.6km/h 36% 0.00in /  0mm 0.0 W/m2
03:20 70.5 °F /  21.4 °C 43.0 °F /  6.1 °C 29.72in /  1006.3hPa Calm   1.0mph /  1.6km/h 37% 0.00in /  0mm 0.0 W/m2
03:25 70.3 °F /  21.3 °C 43.5 °F /  6.4 °C 29.72in /  1006.3hPa Calm     38% 0.00in /  0mm 0.0 W/m2
03:30 70.3 °F /  21.3 °C 43.5 °F /  6.4 °C 29.72in /  1006.3hPa Calm   2.0mph /  3.2km/h 38% 0.00in /  0mm 0.0 W/m2
03:35 70.2 °F /  21.2 °C 42.6 °F /  5.9 °C 29.72in /  1006.3hPa Calm   2.0mph /  3.2km/h 37% 0.00in /  0mm 0.0 W/m2
03:40 70.2 °F /  21.2 °C 43.3 °F /  6.3 °C 29.72in /  1006.3hPa Calm   1.0mph /  1.6km/h 38% 0.00in /  0mm 0.0 W/m2
03:45 70.0 °F /  21.1 °C 43.9 °F /  6.6 °C 29.72in /  1006.3hPa SSW 0.9mph /  1.4km/h 1.0mph /  1.6km/h 39% 0.00in /  0mm 0.0 W/m2
03:51 70.0 °F /  21.1 °C 44.6 °F /  7 °C 29.72in /  1006.3hPa Calm   2.0mph /  3.2km/h 40% 0.00in /  0mm 0.0 W/m2
03:56 69.6 °F /  20.9 °C 44.2 °F /  6.8 °C 29.72in /  1006.3hPa Calm     40% 0.00in /  0mm 0.0 W/m2
04:01 69.6 °F /  20.9 °C 43.5 °F /  6.4 °C 29.72in /  1006.3hPa Calm     39% 0.00in /  0mm 0.0 W/m2
04:06 69.4 °F /  20.8 °C 44.8 °F /  7.1 °C 29.71in /  1006hPa Calm   1.0mph /  1.6km/h 41% 0.00in /  0mm 0.0 W/m2
04:12 69.4 °F /  20.8 °C 46.0 °F /  7.8 °C 29.71in /  1006hPa South 0.9mph /  1.4km/h 1.0mph /  1.6km/h 43% 0.00in /  0mm 0.0 W/m2
04:17 69.3 °F /  20.7 °C 45.1 °F /  7.3 °C 29.71in /  1006hPa Calm   2.0mph /  3.2km/h 42% 0.00in /  0mm 0.0 W/m2
04:22 69.1 °F /  20.6 °C 45.0 °F /  7.2 °C 29.71in /  1006hPa Calm     42% 0.00in /  0mm 0.0 W/m2
04:27 69.1 °F /  20.6 °C 46.2 °F /  7.9 °C 29.71in /  1006hPa Calm     44% 0.00in /  0mm 0.0 W/m2
04:33 68.9 °F /  20.5 °C 46.0 °F /  7.8 °C 29.71in /  1006hPa Calm   1.0mph /  1.6km/h 44% 0.00in /  0mm 0.0 W/m2
04:38 68.7 °F /  20.4 °C 46.6 °F /  8.1 °C 29.71in /  1006hPa Calm     45% 0.00in /  0mm 0.0 W/m2
04:43 68.5 °F /  20.3 °C 45.7 °F /  7.6 °C 29.71in /  1006hPa Calm     44% 0.00in /  0mm 0.0 W/m2
04:48 68.4 °F /  20.2 °C 46.2 °F /  7.9 °C 29.70in /  1005.6hPa Calm     45% 0.00in /  0mm 0.0 W/m2
04:53 68.2 °F /  20.1 °C 46.6 °F /  8.1 °C 29.70in /  1005.6hPa Calm     46% 0.00in /  0mm 0.0 W/m2
04:58 67.8 °F /  19.9 °C 46.2 °F /  7.9 °C 29.70in /  1005.6hPa Calm   1.0mph /  1.6km/h 46% 0.00in /  0mm 0.0 W/m2
05:03 67.6 °F /  19.8 °C 46.8 °F /  8.2 °C 29.70in /  1005.6hPa Calm     47% 0.00in /  0mm 0.0 W/m2
05:08 67.5 °F /  19.7 °C 47.1 °F /  8.4 °C 29.71in /  1006hPa Calm     48% 0.00in /  0mm 0.0 W/m2
05:13 67.1 °F /  19.5 °C 47.8 °F /  8.8 °C 29.71in /  1006hPa Calm     50% 0.00in /  0mm 0.0 W/m2
05:19 66.7 °F /  19.3 °C 47.5 °F /  8.6 °C 29.71in /  1006hPa Calm     50% 0.00in /  0mm 0.0 W/m2
05:24 66.4 °F /  19.1 °C 47.1 °F /  8.4 °C 29.71in /  1006hPa Calm     50% 0.00in /  0mm 0.0 W/m2
05:29 66.0 °F /  18.9 °C 47.3 °F /  8.5 °C 29.71in /  1006hPa Calm     51% 0.00in /  0mm 0.0 W/m2
05:34 65.8 °F /  18.8 °C 46.8 °F /  8.2 °C 29.71in /  1006hPa Calm     50% 0.00in /  0mm 0.0 W/m2
05:39 65.5 °F /  18.6 °C 46.9 °F /  8.3 °C 29.71in /  1006hPa Calm     51% 0.00in /  0mm 0.0 W/m2
05:44 65.1 °F /  18.4 °C 46.6 °F /  8.1 °C 29.71in /  1006hPa Calm     51% 0.00in /  0mm 0.0 W/m2
05:49 64.9 °F /  18.3 °C 46.9 °F /  8.3 °C 29.71in /  1006hPa Calm     52% 0.00in /  0mm 0.0 W/m2
05:54 64.6 °F /  18.1 °C 47.1 °F /  8.4 °C 29.71in /  1006hPa Calm     53% 0.00in /  0mm 0.0 W/m2
05:59 64.2 °F /  17.9 °C 47.7 °F /  8.7 °C 29.71in /  1006hPa Calm   1.0mph /  1.6km/h 55% 0.00in /  0mm 0.0 W/m2
06:04 63.9 °F /  17.7 °C 48.4 °F /  9.1 °C 29.71in /  1006hPa Calm   1.0mph /  1.6km/h 57% 0.00in /  0mm 0.0 W/m2
06:09 63.7 °F /  17.6 °C 48.6 °F /  9.2 °C 29.71in /  1006hPa Calm   3.0mph /  4.8km/h 58% 0.00in /  0mm 0.0 W/m2
06:15 63.3 °F /  17.4 °C 49.6 °F /  9.8 °C 29.71in /  1006hPa Calm     61% 0.00in /  0mm 0.0 W/m2
06:20 63.0 °F /  17.2 °C 49.3 °F /  9.6 °C 29.71in /  1006hPa Calm   2.0mph /  3.2km/h 61% 0.00in /  0mm 0.0 W/m2
06:25 62.8 °F /  17.1 °C 49.6 °F /  9.8 °C 29.71in /  1006hPa Calm     62% 0.00in /  0mm 0.0 W/m2
06:30 62.4 °F /  16.9 °C 49.3 °F /  9.6 °C 29.71in /  1006hPa Calm   1.0mph /  1.6km/h 62% 0.00in /  0mm 0.0 W/m2
06:35 62.2 °F /  16.8 °C 49.1 °F /  9.5 °C 29.71in /  1006hPa Calm     62% 0.00in /  0mm 0.0 W/m2
06:40 62.1 °F /  16.7 °C 48.9 °F /  9.4 °C 29.71in /  1006hPa Calm     62% 0.00in /  0mm 0.0 W/m2
06:45 61.9 °F /  16.6 °C 49.1 °F /  9.5 °C 29.71in /  1006hPa Calm   1.0mph /  1.6km/h 63% 0.00in /  0mm 5.0 W/m2
06:50 61.5 °F /  16.4 °C 48.7 °F /  9.3 °C 29.71in /  1006hPa Calm   1.0mph /  1.6km/h 63% 0.00in /  0mm 7.0 W/m2
06:55 61.3 °F /  16.3 °C 48.6 °F /  9.2 °C 29.71in /  1006hPa Calm   1.0mph /  1.6km/h 63% 0.00in /  0mm 11.0 W/m2
07:01 61.2 °F /  16.2 °C 48.4 °F /  9.1 °C 29.71in /  1006hPa Calm   1.0mph /  1.6km/h 63% 0.00in /  0mm 12.0 W/m2
07:06 61.2 °F /  16.2 °C 49.3 °F /  9.6 °C 29.71in /  1006hPa Calm   1.0mph /  1.6km/h 65% 0.00in /  0mm 14.0 W/m2
07:11 61.0 °F /  16.1 °C 48.4 °F /  9.1 °C 29.71in /  1006hPa Calm     63% 0.00in /  0mm 16.0 W/m2
07:16 61.0 °F /  16.1 °C 49.1 °F /  9.5 °C 29.71in /  1006hPa Calm   2.0mph /  3.2km/h 65% 0.00in /  0mm 18.0 W/m2
07:21 61.0 °F /  16.1 °C 49.1 °F /  9.5 °C 29.71in /  1006hPa Calm     65% 0.00in /  0mm 19.0 W/m2
07:26 61.0 °F /  16.1 °C 49.1 °F /  9.5 °C 29.72in /  1006.3hPa Calm     65% 0.00in /  0mm 21.0 W/m2
07:31 61.2 °F /  16.2 °C 49.3 °F /  9.6 °C 29.72in /  1006.3hPa Calm     65% 0.00in /  0mm 23.0 W/m2
07:36 61.2 °F /  16.2 °C 49.6 °F /  9.8 °C 29.72in /  1006.3hPa Calm     66% 0.00in /  0mm 25.0 W/m2
07:41 61.3 °F /  16.3 °C 49.5 °F /  9.7 °C 29.72in /  1006.3hPa Calm     65% 0.00in /  0mm 26.0 W/m2
07:46 61.3 °F /  16.3 °C 49.5 °F /  9.7 °C 29.72in /  1006.3hPa Calm     65% 0.00in /  0mm 28.0 W/m2
07:51 61.5 °F /  16.4 °C 49.3 °F /  9.6 °C 29.72in /  1006.3hPa Calm     64% 0.00in /  0mm 37.0 W/m2
07:57 61.9 °F /  16.6 °C 47.5 °F /  8.6 °C 29.72in /  1006.3hPa Calm     59% 0.00in /  0mm 32.0 W/m2
08:02 62.2 °F /  16.8 °C 47.7 °F /  8.7 °C 29.72in /  1006.3hPa SSE 0.9mph /  1.4km/h 1.0mph /  1.6km/h 59% 0.00in /  0mm 35.0 W/m2
08:07 62.8 °F /  17.1 °C 48.2 °F /  9 °C 29.72in /  1006.3hPa Calm   1.0mph /  1.6km/h 59% 0.00in /  0mm 35.0 W/m2
08:12 63.5 °F /  17.5 °C 48.4 °F /  9.1 °C 29.72in /  1006.3hPa Calm   1.0mph /  1.6km/h 58% 0.00in /  0mm 42.0 W/m2
08:17 64.0 °F /  17.8 °C 47.1 °F /  8.4 °C 29.72in /  1006.3hPa Calm   1.0mph /  1.6km/h 54% 0.00in /  0mm 44.0 W/m2
08:22 64.8 °F /  18.2 °C 47.7 °F /  8.7 °C 29.72in /  1006.3hPa Calm     54% 0.00in /  0mm 37.0 W/m2
08:27 65.5 °F /  18.6 °C 47.5 °F /  8.6 °C 29.72in /  1006.3hPa Calm     52% 0.00in /  0mm 37.0 W/m2
08:32 65.8 °F /  18.8 °C 48.7 °F /  9.3 °C 29.72in /  1006.3hPa Calm     54% 0.00in /  0mm 39.0 W/m2
08:38 66.6 °F /  19.2 °C 50.4 °F /  10.2 °C 29.73in /  1006.7hPa Calm   1.0mph /  1.6km/h 56% 0.00in /  0mm 42.0 W/m2
08:43 67.1 °F /  19.5 °C 49.8 °F /  9.9 °C 29.72in /  1006.3hPa Calm   1.0mph /  1.6km/h 54% 0.00in /  0mm 47.0 W/m2
08:48 67.8 °F /  19.9 °C 50.0 °F /  10 °C 29.72in /  1006.3hPa Calm   1.0mph /  1.6km/h 53% 0.00in /  0mm 149.0 W/m2
08:53 68.4 °F /  20.2 °C 49.5 °F /  9.7 °C 29.72in /  1006.3hPa Calm   2.0mph /  3.2km/h 51% 0.00in /  0mm 483.0 W/m2
08:58 69.1 °F /  20.6 °C 49.1 °F /  9.5 °C 29.72in /  1006.3hPa Calm   1.0mph /  1.6km/h 49% 0.00in /  0mm 504.0 W/m2
09:03 69.8 °F /  21 °C 49.8 °F /  9.9 °C 29.72in /  1006.3hPa Calm   2.0mph /  3.2km/h 49% 0.00in /  0mm 524.0 W/m2
09:08 70.5 °F /  21.4 °C 49.8 °F /  9.9 °C 29.72in /  1006.3hPa WNW 0.9mph /  1.4km/h 2.0mph /  3.2km/h 48% 0.00in /  0mm 545.0 W/m2
09:13 71.8 °F /  22.1 °C 49.8 °F /  9.9 °C 29.72in /  1006.3hPa Calm   2.0mph /  3.2km/h 46% 0.00in /  0mm 563.0 W/m2
09:18 73.0 °F /  22.8 °C 50.4 °F /  10.2 °C 29.72in /  1006.3hPa WSW 0.9mph /  1.4km/h 2.0mph /  3.2km/h 45% 0.00in /  0mm 580.0 W/m2
09:24 73.8 °F /  23.2 °C 50.5 °F /  10.3 °C 29.72in /  1006.3hPa NW 2.0mph /  3.2km/h 2.0mph /  3.2km/h 44% 0.00in /  0mm 598.0 W/m2
09:29 74.7 °F /  23.7 °C 50.0 °F /  10 °C 29.72in /  1006.3hPa Calm   4.0mph /  6.4km/h 42% 0.00in /  0mm 619.0 W/m2
09:34 75.7 °F /  24.3 °C 50.4 °F /  10.2 °C 29.72in /  1006.3hPa Calm   3.0mph /  4.8km/h 41% 0.00in /  0mm 631.0 W/m2
09:39 76.1 °F /  24.5 °C 50.7 °F /  10.4 °C 29.72in /  1006.3hPa Calm   1.0mph /  1.6km/h 41% 0.00in /  0mm 649.0 W/m2
09:44 76.6 °F /  24.8 °C 49.8 °F /  9.9 °C 29.72in /  1006.3hPa WNW 2.0mph /  3.2km/h 2.0mph /  3.2km/h 39% 0.00in /  0mm 670.0 W/m2
09:49 77.5 °F /  25.3 °C 47.7 °F /  8.7 °C 29.72in /  1006.3hPa NW 0.9mph /  1.4km/h 3.0mph /  4.8km/h 35% 0.00in /  0mm 686.0 W/m2
09:54 78.4 °F /  25.8 °C 46.9 °F /  8.3 °C 29.72in /  1006.3hPa Calm   1.0mph /  1.6km/h 33% 0.00in /  0mm 705.0 W/m2
10:00 79.2 °F /  26.2 °C 45.9 °F /  7.7 °C 29.72in /  1006.3hPa Calm   3.0mph /  4.8km/h 31% 0.00in /  0mm 719.0 W/m2
10:05 79.5 °F /  26.4 °C 46.2 °F /  7.9 °C 29.72in /  1006.3hPa North 2.0mph /  3.2km/h 4.0mph /  6.4km/h 31% 0.00in /  0mm 737.0 W/m2
10:10 80.1 °F /  26.7 °C 45.0 °F /  7.2 °C 29.72in /  1006.3hPa NW 0.9mph /  1.4km/h 3.0mph /  4.8km/h 29% 0.00in /  0mm 758.0 W/m2
10:15 80.2 °F /  26.8 °C 46.0 °F /  7.8 °C 29.72in /  1006.3hPa Calm   1.0mph /  1.6km/h 30% 0.00in /  0mm 768.0 W/m2
10:20 80.4 °F /  26.9 °C 46.2 °F /  7.9 °C 29.72in /  1006.3hPa WSW 2.0mph /  3.2km/h 2.0mph /  3.2km/h 30% 0.00in /  0mm 788.0 W/m2
10:25 81.0 °F /  27.2 °C 43.9 °F /  6.6 °C 29.72in /  1006.3hPa NNW 2.9mph /  4.7km/h 4.0mph /  6.4km/h 27% 0.00in /  0mm 803.0 W/m2
10:30 81.1 °F /  27.3 °C 45.0 °F /  7.2 °C 29.72in /  1006.3hPa West 0.9mph /  1.4km/h 4.0mph /  6.4km/h 28% 0.00in /  0mm 817.0 W/m2
10:35 81.3 °F /  27.4 °C 43.2 °F /  6.2 °C 29.72in /  1006.3hPa NNW 2.9mph /  4.7km/h 3.0mph /  4.8km/h 26% 0.00in /  0mm 831.0 W/m2
10:40 81.9 °F /  27.7 °C 43.7 °F /  6.5 °C 29.72in /  1006.3hPa Calm   1.0mph /  1.6km/h 26% 0.00in /  0mm 847.0 W/m2
10:46 82.2 °F /  27.9 °C 45.9 °F /  7.7 °C 29.72in /  1006.3hPa Calm   2.0mph /  3.2km/h 28% 0.00in /  0mm 856.0 W/m2
10:51 82.6 °F /  28.1 °C 47.1 °F /  8.4 °C 29.72in /  1006.3hPa NW 0.9mph /  1.4km/h 3.0mph /  4.8km/h 29% 0.00in /  0mm 874.0 W/m2
10:56 82.9 °F /  28.3 °C 45.5 °F /  7.5 °C 29.72in /  1006.3hPa NW 2.0mph /  3.2km/h 4.0mph /  6.4km/h 27% 0.00in /  0mm 891.0 W/m2
11:02 83.1 °F /  28.4 °C 45.7 °F /  7.6 °C 29.72in /  1006.3hPa WSW 2.0mph /  3.2km/h 6.0mph /  9.7km/h 27% 0.00in /  0mm 905.0 W/m2
11:07 82.9 °F /  28.3 °C 44.6 °F /  7 °C 29.72in /  1006.3hPa SSW 2.0mph /  3.2km/h 3.0mph /  4.8km/h 26% 0.00in /  0mm 916.0 W/m2
11:13 83.3 °F /  28.5 °C 46.8 °F /  8.2 °C 29.71in /  1006hPa West 0.9mph /  1.4km/h 5.0mph /  8km/h 28% 0.00in /  0mm 928.0 W/m2
11:18 83.8 °F /  28.8 °C 46.2 °F /  7.9 °C 29.71in /  1006hPa WSW 0.9mph /  1.4km/h 6.0mph /  9.7km/h 27% 0.00in /  0mm 944.0 W/m2
11:23 84.4 °F /  29.1 °C 45.7 °F /  7.6 °C 29.71in /  1006hPa SSW 0.9mph /  1.4km/h 2.0mph /  3.2km/h 26% 0.00in /  0mm 953.0 W/m2
11:28 84.7 °F /  29.3 °C 46.0 °F /  7.8 °C 29.71in /  1006hPa Calm   7.0mph /  11.3km/h 26% 0.00in /  0mm 963.0 W/m2
11:34 84.7 °F /  29.3 °C 45.0 °F /  7.2 °C 29.71in /  1006hPa WSW 0.9mph /  1.4km/h 8.0mph /  12.9km/h 25% 0.00in /  0mm 977.0 W/m2
11:39 84.6 °F /  29.2 °C 43.9 °F /  6.6 °C 29.70in /  1005.6hPa SE 0.9mph /  1.4km/h 5.0mph /  8km/h 24% 0.00in /  0mm 983.0 W/m2
11:44 84.4 °F /  29.1 °C 44.8 °F /  7.1 °C 29.70in /  1005.6hPa SW 2.9mph /  4.7km/h 8.0mph /  12.9km/h 25% 0.00in /  0mm 993.0 W/m2
11:49 84.4 °F /  29.1 °C 43.7 °F /  6.5 °C 29.70in /  1005.6hPa West 2.0mph /  3.2km/h 10.0mph /  16.1km/h 24% 0.00in /  0mm 997.0 W/m2
11:54 84.2 °F /  29 °C 44.6 °F /  7 °C 29.70in /  1005.6hPa NW 4.0mph /  6.4km/h 7.0mph /  11.3km/h 25% 0.00in /  0mm 1002.0 W/m2
11:59 84.0 °F /  28.9 °C 43.3 °F /  6.3 °C 29.70in /  1005.6hPa Calm   4.0mph /  6.4km/h 24% 0.00in /  0mm 1009.0 W/m2
12:04 84.2 °F /  29 °C 44.6 °F /  7 °C 29.70in /  1005.6hPa NW 0.9mph /  1.4km/h 6.0mph /  9.7km/h 25% 0.00in /  0mm 1014.0 W/m2
12:09 84.7 °F /  29.3 °C 43.9 °F /  6.6 °C 29.70in /  1005.6hPa SW 0.9mph /  1.4km/h 4.0mph /  6.4km/h 24% 0.00in /  0mm 1021.0 W/m2
12:15 84.9 °F /  29.4 °C 45.1 °F /  7.3 °C 29.69in /  1005.3hPa South 2.9mph /  4.7km/h 7.0mph /  11.3km/h 25% 0.00in /  0mm 1020.0 W/m2
12:20 85.3 °F /  29.6 °C 45.5 °F /  7.5 °C 29.69in /  1005.3hPa WSW 2.0mph /  3.2km/h 9.0mph /  14.5km/h 25% 0.00in /  0mm 1025.0 W/m2
12:25 85.8 °F /  29.9 °C 44.8 °F /  7.1 °C 29.69in /  1005.3hPa NNW 8.1mph /  13km/h 8.1mph /  13km/h 24% 0.00in /  0mm 1039.0 W/m2
12:30 86.5 °F /  30.3 °C 44.4 °F /  6.9 °C 29.69in /  1005.3hPa West 2.0mph /  3.2km/h 4.0mph /  6.4km/h 23% 0.00in /  0mm 1048.0 W/m2
12:35 87.3 °F /  30.7 °C 45.0 °F /  7.2 °C 29.69in /  1005.3hPa NNW 2.9mph /  4.7km/h 5.0mph /  8km/h 23% 0.00in /  0mm 1042.0 W/m2
12:40 87.6 °F /  30.9 °C 44.1 °F /  6.7 °C 29.68in /  1005hPa West 0.9mph /  1.4km/h 8.0mph /  12.9km/h 22% 0.00in /  0mm 1055.0 W/m2
12:45 87.4 °F /  30.8 °C 45.1 °F /  7.3 °C 29.68in /  1005hPa SW 4.0mph /  6.4km/h 9.0mph /  14.5km/h 23% 0.00in /  0mm 1044.0 W/m2
12:50 87.4 °F /  30.8 °C 43.9 °F /  6.6 °C 29.68in /  1005hPa WNW 2.0mph /  3.2km/h 6.0mph /  9.7km/h 22% 0.00in /  0mm 1048.0 W/m2
12:55 87.6 °F /  30.9 °C 44.1 °F /  6.7 °C 29.69in /  1005.3hPa Calm   8.0mph /  12.9km/h 22% 0.00in /  0mm 1058.0 W/m2
13:00 87.6 °F /  30.9 °C 44.1 °F /  6.7 °C 29.69in /  1005.3hPa WSW 8.9mph /  14.3km/h 10.0mph /  16.1km/h 22% 0.00in /  0mm 1055.0 W/m2
13:06 87.3 °F /  30.7 °C 43.7 °F /  6.5 °C 29.69in /  1005.3hPa SSW 2.9mph /  4.7km/h 8.0mph /  12.9km/h 22% 0.00in /  0mm 1058.0 W/m2
13:11 86.5 °F /  30.3 °C 43.2 °F /  6.2 °C 29.68in /  1005hPa SW 4.9mph /  7.9km/h 8.0mph /  12.9km/h 22% 0.00in /  0mm 1042.0 W/m2
13:16 86.7 °F /  30.4 °C 42.1 °F /  5.6 °C 29.68in /  1005hPa West 2.0mph /  3.2km/h 10.0mph /  16.1km/h 21% 0.00in /  0mm 990.0 W/m2
13:21 87.4 °F /  30.8 °C 42.8 °F /  6 °C 29.68in /  1005hPa NNE 2.9mph /  4.7km/h 4.0mph /  6.4km/h 21% 0.00in /  0mm 1058.0 W/m2
13:26 88.0 °F /  31.1 °C 43.2 °F /  6.2 °C 29.68in /  1005hPa South 6.0mph /  9.7km/h 14.0mph /  22.5km/h 21% 0.00in /  0mm 1062.0 W/m2
13:31 87.8 °F /  31 °C 43.0 °F /  6.1 °C 29.68in /  1005hPa WSW 8.1mph /  13km/h 9.0mph /  14.5km/h 21% 0.00in /  0mm 1049.0 W/m2
13:36 87.6 °F /  30.9 °C 42.8 °F /  6 °C 29.68in /  1005hPa WNW 2.9mph /  4.7km/h 5.0mph /  8km/h 21% 0.00in /  0mm 1041.0 W/m2
13:41 88.0 °F /  31.1 °C 43.2 °F /  6.2 °C 29.67in /  1004.6hPa Calm   5.0mph /  8km/h 21% 0.00in /  0mm 1039.0 W/m2
13:46 88.5 °F /  31.4 °C 43.5 °F /  6.4 °C 29.67in /  1004.6hPa WSW 0.9mph /  1.4km/h 3.0mph /  4.8km/h 21% 0.00in /  0mm 1042.0 W/m2
13:51 88.3 °F /  31.3 °C 43.5 °F /  6.4 °C 29.67in /  1004.6hPa West 2.9mph /  4.7km/h 7.0mph /  11.3km/h 21% 0.00in /  0mm 1041.0 W/m2
13:57 88.2 °F /  31.2 °C 43.3 °F /  6.3 °C 29.67in /  1004.6hPa West 8.9mph /  14.3km/h 10.0mph /  16.1km/h 21% 0.00in /  0mm 1063.0 W/m2
14:02 88.0 °F /  31.1 °C 43.2 °F /  6.2 °C 29.67in /  1004.6hPa West 2.0mph /  3.2km/h 6.0mph /  9.7km/h 21% 0.00in /  0mm 1056.0 W/m2
14:08 87.4 °F /  30.8 °C 43.9 °F /  6.6 °C 29.66in /  1004.3hPa SW 4.0mph /  6.4km/h 9.0mph /  14.5km/h 22% 0.00in /  0mm 1060.0 W/m2
14:13 87.6 °F /  30.9 °C 42.8 °F /  6 °C 29.66in /  1004.3hPa WNW 4.0mph /  6.4km/h 11.0mph /  17.7km/h 21% 0.00in /  0mm 1085.0 W/m2
14:18 88.0 °F /  31.1 °C 43.2 °F /  6.2 °C 29.66in /  1004.3hPa WSW 4.0mph /  6.4km/h 9.0mph /  14.5km/h 21% 0.00in /  0mm 1014.0 W/m2
14:23 88.3 °F /  31.3 °C 43.5 °F /  6.4 °C 29.66in /  1004.3hPa NW 0.9mph /  1.4km/h 10.0mph /  16.1km/h 21% 0.00in /  0mm 1042.0 W/m2
14:28 88.9 °F /  31.6 °C 42.6 °F /  5.9 °C 29.66in /  1004.3hPa WSW 2.9mph /  4.7km/h 9.0mph /  14.5km/h 20% 0.00in /  0mm 1062.0 W/m2
14:33 88.9 °F /  31.6 °C 42.6 °F /  5.9 °C 29.66in /  1004.3hPa SW 0.9mph /  1.4km/h 7.0mph /  11.3km/h 20% 0.00in /  0mm 1020.0 W/m2
14:38 89.4 °F /  31.9 °C 43.0 °F /  6.1 °C 29.65in /  1003.9hPa WNW 8.1mph /  13km/h 10.0mph /  16.1km/h 20% 0.00in /  0mm 990.0 W/m2
14:44 89.8 °F /  32.1 °C 43.3 °F /  6.3 °C 29.66in /  1004.3hPa West 2.9mph /  4.7km/h 10.0mph /  16.1km/h 20% 0.00in /  0mm 958.0 W/m2
14:49 89.2 °F /  31.8 °C 41.5 °F /  5.3 °C 29.65in /  1003.9hPa WSW 11.0mph /  17.7km/h 12.0mph /  19.3km/h 19% 0.00in /  0mm 960.0 W/m2
14:54 88.9 °F /  31.6 °C 42.6 °F /  5.9 °C 29.65in /  1003.9hPa WSW 2.9mph /  4.7km/h 9.0mph /  14.5km/h 20% 0.00in /  0mm 951.0 W/m2
14:59 89.1 °F /  31.7 °C 42.8 °F /  6 °C 29.65in /  1003.9hPa Calm   5.0mph /  8km/h 20% 0.00in /  0mm 925.0 W/m2
15:04 89.2 °F /  31.8 °C 43.0 °F /  6.1 °C 29.65in /  1003.9hPa SW 6.0mph /  9.7km/h 15.0mph /  24.1km/h 20% 0.00in /  0mm 921.0 W/m2
15:09 88.5 °F /  31.4 °C 42.3 °F /  5.7 °C 29.65in /  1003.9hPa WNW 4.9mph /  7.9km/h 13.0mph /  20.9km/h 20% 0.00in /  0mm 909.0 W/m2
15:14 88.5 °F /  31.4 °C 42.3 °F /  5.7 °C 29.64in /  1003.6hPa NW 0.9mph /  1.4km/h 10.0mph /  16.1km/h 20% 0.00in /  0mm 905.0 W/m2
15:19 88.9 °F /  31.6 °C 42.6 °F /  5.9 °C 29.64in /  1003.6hPa West 2.9mph /  4.7km/h 9.0mph /  14.5km/h 20% 0.00in /  0mm 889.0 W/m2
15:24 88.3 °F /  31.3 °C 42.3 °F /  5.7 °C 29.64in /  1003.6hPa SW 4.9mph /  7.9km/h 7.0mph /  11.3km/h 20% 0.00in /  0mm 125.0 W/m2
15:29 88.2 °F /  31.2 °C 42.1 °F /  5.6 °C 29.64in /  1003.6hPa West 0.9mph /  1.4km/h 9.0mph /  14.5km/h 20% 0.00in /  0mm 149.0 W/m2
15:35 88.0 °F /  31.1 °C 41.9 °F /  5.5 °C 29.63in /  1003.3hPa WSW 8.1mph /  13km/h 10.0mph /  16.1km/h 20% 0.00in /  0mm 904.0 W/m2
15:40 88.2 °F /  31.2 °C 42.1 °F /  5.6 °C 29.62in /  1002.9hPa SSW 4.9mph /  7.9km/h 11.0mph /  17.7km/h 20% 0.00in /  0mm 844.0 W/m2
15:45 88.0 °F /  31.1 °C 40.6 °F /  4.8 °C 29.62in /  1002.9hPa WSW 2.0mph /  3.2km/h 13.0mph /  20.9km/h 19% 0.00in /  0mm 803.0 W/m2
15:51 88.3 °F /  31.3 °C 40.8 °F /  4.9 °C 29.62in /  1002.9hPa WSW 10.1mph /  16.3km/h 12.0mph /  19.3km/h 19% 0.00in /  0mm 773.0 W/m2
15:56 88.9 °F /  31.6 °C 41.4 °F /  5.2 °C 29.62in /  1002.9hPa NNW 0.9mph /  1.4km/h 5.0mph /  8km/h 19% 0.00in /  0mm 765.0 W/m2
16:01 89.2 °F /  31.8 °C 41.5 °F /  5.3 °C 29.61in /  1002.6hPa West 6.0mph /  9.7km/h 13.0mph /  20.9km/h 19% 0.00in /  0mm 754.0 W/m2
16:07 89.4 °F /  31.9 °C 41.7 °F /  5.4 °C 29.61in /  1002.6hPa SW 8.9mph /  14.3km/h 10.0mph /  16.1km/h 19% 0.00in /  0mm 742.0 W/m2
16:12 89.2 °F /  31.8 °C 41.5 °F /  5.3 °C 29.61in /  1002.6hPa Calm   8.0mph /  12.9km/h 19% 0.00in /  0mm 731.0 W/m2
16:17 89.2 °F /  31.8 °C 43.0 °F /  6.1 °C 29.60in /  1002.3hPa SW 4.9mph /  7.9km/h 11.0mph /  17.7km/h 20% 0.00in /  0mm 714.0 W/m2
16:23 89.6 °F /  32 °C 43.2 °F /  6.2 °C 29.60in /  1002.3hPa WNW 4.9mph /  7.9km/h 14.0mph /  22.5km/h 20% 0.00in /  0mm 691.0 W/m2
16:29 90.0 °F /  32.2 °C 43.5 °F /  6.4 °C 29.60in /  1002.3hPa Calm   11.0mph /  17.7km/h 20% 0.00in /  0mm 680.0 W/m2
16:34 89.8 °F /  32.1 °C 43.3 °F /  6.3 °C 29.60in /  1002.3hPa West 8.1mph /  13km/h 8.1mph /  13km/h 20% 0.00in /  0mm 671.0 W/m2
16:40 90.0 °F /  32.2 °C 42.3 °F /  5.7 °C 29.60in /  1002.3hPa West 2.0mph /  3.2km/h 8.0mph /  12.9km/h 19% 0.00in /  0mm 656.0 W/m2
16:45 90.1 °F /  32.3 °C 43.7 °F /  6.5 °C 29.60in /  1002.3hPa WNW 2.9mph /  4.7km/h 10.0mph /  16.1km/h 20% 0.00in /  0mm 661.0 W/m2
16:51 90.3 °F /  32.4 °C 42.4 °F /  5.8 °C 29.59in /  1001.9hPa NNW 0.9mph /  1.4km/h 8.0mph /  12.9km/h 19% 0.00in /  0mm 649.0 W/m2
16:56 90.9 °F /  32.7 °C 41.5 °F /  5.3 °C 29.59in /  1001.9hPa West 2.0mph /  3.2km/h 6.0mph /  9.7km/h 18% 0.00in /  0mm 610.0 W/m2
17:01 90.9 °F /  32.7 °C 41.5 °F /  5.3 °C 29.59in /  1001.9hPa SW 8.9mph /  14.3km/h 11.0mph /  17.7km/h 18% 0.00in /  0mm 656.0 W/m2
17:06 91.0 °F /  32.8 °C 41.7 °F /  5.4 °C 29.59in /  1001.9hPa WSW 4.9mph /  7.9km/h 9.0mph /  14.5km/h 18% 0.00in /  0mm 640.0 W/m2
17:12 90.7 °F /  32.6 °C 41.4 °F /  5.2 °C 29.59in /  1001.9hPa WNW 6.9mph /  11.1km/h 8.0mph /  12.9km/h 18% 0.00in /  0mm 190.0 W/m2
17:17 90.0 °F /  32.2 °C 40.8 °F /  4.9 °C 29.59in /  1001.9hPa West 4.9mph /  7.9km/h 13.0mph /  20.9km/h 18% 0.00in /  0mm 564.0 W/m2
17:22 89.1 °F /  31.7 °C 40.1 °F /  4.5 °C 29.59in /  1001.9hPa WSW 4.9mph /  7.9km/h 12.0mph /  19.3km/h 18% 0.00in /  0mm 522.0 W/m2
17:27 88.7 °F /  31.5 °C 39.7 °F /  4.3 °C 29.59in /  1001.9hPa SW 8.1mph /  13km/h 15.0mph /  24.1km/h 18% 0.00in /  0mm 524.0 W/m2
17:33 87.6 °F /  30.9 °C 38.8 °F /  3.8 °C 29.59in /  1001.9hPa West 2.0mph /  3.2km/h 8.0mph /  12.9km/h 18% 0.00in /  0mm 503.0 W/m2
17:39 87.6 °F /  30.9 °C 40.3 °F /  4.6 °C 29.59in /  1001.9hPa WNW 10.1mph /  16.3km/h 10.1mph /  16.3km/h 19% 0.00in /  0mm 487.0 W/m2
17:44 87.6 °F /  30.9 °C 38.8 °F /  3.8 °C 29.59in /  1001.9hPa West 6.0mph /  9.7km/h 11.0mph /  17.7km/h 18% 0.00in /  0mm 142.0 W/m2
17:49 87.3 °F /  30.7 °C 39.9 °F /  4.4 °C 29.59in /  1001.9hPa West 6.9mph /  11.1km/h 10.0mph /  16.1km/h 19% 0.00in /  0mm 441.0 W/m2
17:55 87.6 °F /  30.9 °C 40.3 °F /  4.6 °C 29.59in /  1001.9hPa SW 4.9mph /  7.9km/h 10.0mph /  16.1km/h 19% 0.00in /  0mm 385.0 W/m2
18:00 88.0 °F /  31.1 °C 39.2 °F /  4 °C 29.59in /  1001.9hPa WSW 4.9mph /  7.9km/h 14.0mph /  22.5km/h 18% 0.00in /  0mm 325.0 W/m2
18:05 87.4 °F /  30.8 °C 38.7 °F /  3.7 °C 29.59in /  1001.9hPa WSW 8.1mph /  13km/h 11.0mph /  17.7km/h 18% 0.00in /  0mm 287.0 W/m2
18:11 87.3 °F /  30.7 °C 38.7 °F /  3.7 °C 29.59in /  1001.9hPa WNW 8.1mph /  13km/h 15.0mph /  24.1km/h 18% 0.00in /  0mm 258.0 W/m2
18:16 87.1 °F /  30.6 °C 39.7 °F /  4.3 °C 29.59in /  1001.9hPa WSW 2.0mph /  3.2km/h 9.0mph /  14.5km/h 19% 0.00in /  0mm 244.0 W/m2
18:21 87.1 °F /  30.6 °C 38.5 °F /  3.6 °C 29.59in /  1001.9hPa SW 2.9mph /  4.7km/h 9.0mph /  14.5km/h 18% 0.00in /  0mm 221.0 W/m2
18:26 86.5 °F /  30.3 °C 39.4 °F /  4.1 °C 29.60in /  1002.3hPa West 4.9mph /  7.9km/h 8.0mph /  12.9km/h 19% 0.00in /  0mm 202.0 W/m2
18:31 86.4 °F /  30.2 °C 39.2 °F /  4 °C 29.60in /  1002.3hPa SSW 4.0mph /  6.4km/h 11.0mph /  17.7km/h 19% 0.00in /  0mm 181.0 W/m2
18:36 85.8 °F /  29.9 °C 38.8 °F /  3.8 °C 29.60in /  1002.3hPa NW 6.9mph /  11.1km/h 9.0mph /  14.5km/h 19% 0.00in /  0mm 160.0 W/m2
18:41 85.3 °F /  29.6 °C 38.3 °F /  3.5 °C 29.60in /  1002.3hPa WSW 4.0mph /  6.4km/h 10.0mph /  16.1km/h 19% 0.00in /  0mm 135.0 W/m2
18:46 84.7 °F /  29.3 °C 39.2 °F /  4 °C 29.60in /  1002.3hPa SW 4.9mph /  7.9km/h 9.0mph /  14.5km/h 20% 0.00in /  0mm 109.0 W/m2
18:52 84.2 °F /  29 °C 38.8 °F /  3.8 °C 29.61in /  1002.6hPa WSW 4.9mph /  7.9km/h 12.0mph /  19.3km/h 20% 0.00in /  0mm 83.0 W/m2
18:57 83.8 °F /  28.8 °C 38.5 °F /  3.6 °C 29.61in /  1002.6hPa WSW 4.0mph /  6.4km/h 15.0mph /  24.1km/h 20% 0.00in /  0mm 65.0 W/m2
19:02 83.5 °F /  28.6 °C 39.4 °F /  4.1 °C 29.61in /  1002.6hPa SSW 8.1mph /  13km/h 8.1mph /  13km/h 21% 0.00in /  0mm 49.0 W/m2
19:08 82.9 °F /  28.3 °C 39.0 °F /  3.9 °C 29.62in /  1002.9hPa SSW 2.9mph /  4.7km/h 17.0mph /  27.4km/h 21% 0.00in /  0mm 30.0 W/m2
19:13 82.6 °F /  28.1 °C 38.7 °F /  3.7 °C 29.62in /  1002.9hPa WSW 2.9mph /  4.7km/h 10.0mph /  16.1km/h 21% 0.00in /  0mm 21.0 W/m2
19:18 81.9 °F /  27.7 °C 39.2 °F /  4 °C 29.62in /  1002.9hPa WSW 2.9mph /  4.7km/h 10.0mph /  16.1km/h 22% 0.00in /  0mm 14.0 W/m2
19:24 81.1 °F /  27.3 °C 38.7 °F /  3.7 °C 29.62in /  1002.9hPa SSW 2.9mph /  4.7km/h 10.0mph /  16.1km/h 22% 0.00in /  0mm 7.0 W/m2
19:29 80.8 °F /  27.1 °C 39.6 °F /  4.2 °C 29.63in /  1003.3hPa South 2.9mph /  4.7km/h 10.0mph /  16.1km/h 23% 0.00in /  0mm 5.0 W/m2
19:34 80.4 °F /  26.9 °C 39.2 °F /  4 °C 29.63in /  1003.3hPa WSW 4.0mph /  6.4km/h 9.0mph /  14.5km/h 23% 0.00in /  0mm 0.0 W/m2
19:40 80.1 °F /  26.7 °C 40.1 °F /  4.5 °C 29.63in /  1003.3hPa SW 6.9mph /  11.1km/h 12.0mph /  19.3km/h 24% 0.00in /  0mm 0.0 W/m2
19:45 79.7 °F /  26.5 °C 39.7 °F /  4.3 °C 29.63in /  1003.3hPa WSW 2.9mph /  4.7km/h 7.0mph /  11.3km/h 24% 0.00in /  0mm 0.0 W/m2
19:51 79.2 °F /  26.2 °C 39.2 °F /  4 °C 29.64in /  1003.6hPa WSW 2.9mph /  4.7km/h 10.0mph /  16.1km/h 24% 0.00in /  0mm 0.0 W/m2
19:56 78.8 °F /  26 °C 39.0 °F /  3.9 °C 29.64in /  1003.6hPa SSE 4.9mph /  7.9km/h 13.0mph /  20.9km/h 24% 0.00in /  0mm 0.0 W/m2
20:01 78.6 °F /  25.9 °C 39.9 °F /  4.4 °C 29.65in /  1003.9hPa SW 6.0mph /  9.7km/h 13.0mph /  20.9km/h 25% 0.00in /  0mm 0.0 W/m2
20:06 78.3 °F /  25.7 °C 39.6 °F /  4.2 °C 29.65in /  1003.9hPa West 8.1mph /  13km/h 8.1mph /  13km/h 25% 0.00in /  0mm 0.0 W/m2
20:11 78.1 °F /  25.6 °C 39.4 °F /  4.1 °C 29.65in /  1003.9hPa South 2.9mph /  4.7km/h 8.0mph /  12.9km/h 25% 0.00in /  0mm 0.0 W/m2
20:16 77.7 °F /  25.4 °C 40.1 °F /  4.5 °C 29.66in /  1004.3hPa WSW 4.0mph /  6.4km/h 11.0mph /  17.7km/h 26% 0.00in /  0mm 0.0 W/m2
20:22 77.4 °F /  25.2 °C 39.7 °F /  4.3 °C 29.66in /  1004.3hPa WSW 4.9mph /  7.9km/h 8.0mph /  12.9km/h 26% 0.00in /  0mm 0.0 W/m2
20:27 77.4 °F /  25.2 °C 38.8 °F /  3.8 °C 29.66in /  1004.3hPa West 8.1mph /  13km/h 8.1mph /  13km/h 25% 0.00in /  0mm 0.0 W/m2
20:32 77.0 °F /  25 °C 39.6 °F /  4.2 °C 29.67in /  1004.6hPa SW 0.9mph /  1.4km/h 4.0mph /  6.4km/h 26% 0.00in /  0mm 0.0 W/m2
20:37 76.8 °F /  24.9 °C 39.4 °F /  4.1 °C 29.67in /  1004.6hPa SSW 2.9mph /  4.7km/h 5.0mph /  8km/h 26% 0.00in /  0mm 0.0 W/m2
20:43 76.5 °F /  24.7 °C 39.0 °F /  3.9 °C 29.67in /  1004.6hPa WSW 2.0mph /  3.2km/h 7.0mph /  11.3km/h 26% 0.00in /  0mm 0.0 W/m2
20:48 76.3 °F /  24.6 °C 38.8 °F /  3.8 °C 29.67in /  1004.6hPa SW 2.0mph /  3.2km/h 7.0mph /  11.3km/h 26% 0.00in /  0mm 0.0 W/m2
20:53 75.9 °F /  24.4 °C 38.7 °F /  3.7 °C 29.68in /  1005hPa Calm   7.0mph /  11.3km/h 26% 0.00in /  0mm 0.0 W/m2
20:58 75.7 °F /  24.3 °C 39.4 °F /  4.1 °C 29.68in /  1005hPa West 6.0mph /  9.7km/h 6.0mph /  9.7km/h 27% 0.00in /  0mm 0.0 W/m2
21:03 75.6 °F /  24.2 °C 39.2 °F /  4 °C 29.68in /  1005hPa SW 4.0mph /  6.4km/h 4.0mph /  6.4km/h 27% 0.00in /  0mm 0.0 W/m2
21:08 75.4 °F /  24.1 °C 39.0 °F /  3.9 °C 29.68in /  1005hPa WSW 2.0mph /  3.2km/h 5.0mph /  8km/h 27% 0.00in /  0mm 0.0 W/m2
21:13 75.0 °F /  23.9 °C 39.7 °F /  4.3 °C 29.68in /  1005hPa SW 0.9mph /  1.4km/h 8.0mph /  12.9km/h 28% 0.00in /  0mm 0.0 W/m2
21:18 74.8 °F /  23.8 °C 39.6 °F /  4.2 °C 29.68in /  1005hPa SW 2.0mph /  3.2km/h 6.0mph /  9.7km/h 28% 0.00in /  0mm 0.0 W/m2
21:23 74.7 °F /  23.7 °C 39.4 °F /  4.1 °C 29.69in /  1005.3hPa SW 2.9mph /  4.7km/h 5.0mph /  8km/h 28% 0.00in /  0mm 0.0 W/m2
21:28 74.7 °F /  23.7 °C 40.3 °F /  4.6 °C 29.69in /  1005.3hPa SW 2.9mph /  4.7km/h 4.0mph /  6.4km/h 29% 0.00in /  0mm 0.0 W/m2
21:33 74.3 °F /  23.5 °C 39.9 °F /  4.4 °C 29.69in /  1005.3hPa SW 0.9mph /  1.4km/h 5.0mph /  8km/h 29% 0.00in /  0mm 0.0 W/m2
21:38 73.9 °F /  23.3 °C 39.7 °F /  4.3 °C 29.70in /  1005.6hPa SW 2.0mph /  3.2km/h 6.0mph /  9.7km/h 29% 0.00in /  0mm 0.0 W/m2
21:43 73.8 °F /  23.2 °C 39.6 °F /  4.2 °C 29.70in /  1005.6hPa Calm   3.0mph /  4.8km/h 29% 0.00in /  0mm 0.0 W/m2
21:48 73.6 °F /  23.1 °C 40.3 °F /  4.6 °C 29.70in /  1005.6hPa West 2.9mph /  4.7km/h 4.0mph /  6.4km/h 30% 0.00in /  0mm 0.0 W/m2
21:54 73.4 °F /  23 °C 40.1 °F /  4.5 °C 29.70in /  1005.6hPa WSW 0.9mph /  1.4km/h 3.0mph /  4.8km/h 30% 0.00in /  0mm 0.0 W/m2
21:59 73.0 °F /  22.8 °C 39.7 °F /  4.3 °C 29.70in /  1005.6hPa WSW 2.0mph /  3.2km/h 4.0mph /  6.4km/h 30% 0.00in /  0mm 0.0 W/m2
22:05 72.9 °F /  22.7 °C 40.5 °F /  4.7 °C 29.71in /  1006hPa Calm   3.0mph /  4.8km/h 31% 0.00in /  0mm 0.0 W/m2
22:11 72.7 °F /  22.6 °C 40.3 °F /  4.6 °C 29.71in /  1006hPa WSW 2.0mph /  3.2km/h 4.0mph /  6.4km/h 31% 0.00in /  0mm 0.0 W/m2
22:16 72.3 °F /  22.4 °C 39.9 °F /  4.4 °C 29.71in /  1006hPa Calm   4.0mph /  6.4km/h 31% 0.00in /  0mm 0.0 W/m2
22:21 72.1 °F /  22.3 °C 40.6 °F /  4.8 °C 29.70in /  1005.6hPa WSW 0.9mph /  1.4km/h 3.0mph /  4.8km/h 32% 0.00in /  0mm 0.0 W/m2
22:27 72.0 °F /  22.2 °C 40.5 °F /  4.7 °C 29.70in /  1005.6hPa WSW 2.0mph /  3.2km/h 4.0mph /  6.4km/h 32% 0.00in /  0mm 0.0 W/m2
22:32 71.8 °F /  22.1 °C 40.3 °F /  4.6 °C 29.70in /  1005.6hPa West 2.9mph /  4.7km/h 3.0mph /  4.8km/h 32% 0.00in /  0mm 0.0 W/m2
22:37 71.4 °F /  21.9 °C 40.8 °F /  4.9 °C 29.70in /  1005.6hPa West 2.0mph /  3.2km/h 4.0mph /  6.4km/h 33% 0.00in /  0mm 0.0 W/m2
22:42 71.2 °F /  21.8 °C 40.6 °F /  4.8 °C 29.70in /  1005.6hPa Calm   1.0mph /  1.6km/h 33% 0.00in /  0mm 0.0 W/m2
22:48 71.1 °F /  21.7 °C 40.5 °F /  4.7 °C 29.70in /  1005.6hPa Calm   1.0mph /  1.6km/h 33% 0.00in /  0mm 0.0 W/m2
22:54 70.9 °F /  21.6 °C 40.3 °F /  4.6 °C 29.70in /  1005.6hPa WSW 0.9mph /  1.4km/h 3.0mph /  4.8km/h 33% 0.00in /  0mm 0.0 W/m2
22:59 70.5 °F /  21.4 °C 40.1 °F /  4.5 °C 29.71in /  1006hPa Calm   4.0mph /  6.4km/h 33% 0.00in /  0mm 0.0 W/m2
23:04 70.5 °F /  21.4 °C 40.1 °F /  4.5 °C 29.71in /  1006hPa Calm   4.0mph /  6.4km/h 33% 0.00in /  0mm 0.0 W/m2
23:09 70.3 °F /  21.3 °C 40.6 °F /  4.8 °C 29.71in /  1006hPa SSW 2.0mph /  3.2km/h 2.0mph /  3.2km/h 34% 0.00in /  0mm 0.0 W/m2
23:14 70.2 °F /  21.2 °C 40.5 °F /  4.7 °C 29.71in /  1006hPa Calm   3.0mph /  4.8km/h 34% 0.00in /  0mm 0.0 W/m2
23:20 70.0 °F /  21.1 °C 40.3 °F /  4.6 °C 29.71in /  1006hPa Calm   2.0mph /  3.2km/h 34% 0.00in /  0mm 0.0 W/m2
23:26 69.6 °F /  20.9 °C 40.8 °F /  4.9 °C 29.71in /  1006hPa Calm   2.0mph /  3.2km/h 35% 0.00in /  0mm 0.0 W/m2
23:32 69.3 °F /  20.7 °C 40.5 °F /  4.7 °C 29.71in /  1006hPa Calm     35% 0.00in /  0mm 0.0 W/m2
23:37 69.1 °F /  20.6 °C 40.3 °F /  4.6 °C 29.71in /  1006hPa Calm     35% 0.00in /  0mm 0.0 W/m2
23:43 68.7 °F /  20.4 °C 40.6 °F /  4.8 °C 29.72in /  1006.3hPa Calm     36% 0.00in /  0mm 0.0 W/m2
23:49 68.5 °F /  20.3 °C 40.5 °F /  4.7 °C 29.71in /  1006hPa Calm     36% 0.00in /  0mm 0.0 W/m2
23:54 68.2 °F /  20.1 °C 40.3 °F /  4.6 °C 29.71in /  1006hPa Calm     36% 0.00in /  0mm 0.0 W/m2
23:59 67.8 °F /  19.9 °C 40.6 °F /  4.8 °C 29.71in /  1006hPa Calm     37% 0.00in /  0mm 0.0 W/m2
Olympia, Windhoek, Namibia
Compliments of Weather Underground - 3.25 mb